• Join FlightAware (Why Join?)
  • Login
  • US Flag 
10:12PM EDT


 

Airport Tracker/Info


-or-


 

Live Flight TrackerFlight Track Log ✈ D-ABTH ✈ 15-Apr-2013 ✈ KDEN - EDDF / FRA

Flight Track Log - Related Links

Times and Time Zones

All times are in EDT time to prevent confusion due to time zone crossing. See the D-ABTH flight status page for this flight to view local times or setup timezone preferences in your user account.

Time Position Orientation Groundspeed Altitude Reporting Facility
EDT Latitude Longitude Course Direction KTS MPH feet Rate Location/Type
08:58PM 39.8987 -104.6870 360° North 179 206 6,000  Level FlightAware ADS-B
08:58PM 39.9107 -104.6860 North 186 214 6,400 1,800 Climbing FlightAware ADS-B
08:58PM 39.9238 -104.6790 22° Northeast 186 214 6,900 1,800 Climbing FlightAware ADS-B
08:58PM 39.9260 -104.6760 46° Northeast 197 227 7,000 1,800 Climbing FlightAware ADS-B
08:59PM 39.9290 -104.6700 57° Northeast 201 231 7,200 1,800 Climbing FlightAware ADS-B
08:59PM 39.9305 -104.6660 64° Northeast 203 234 7,300 1,860 Climbing FlightAware ADS-B
08:59PM 39.9349 -104.6510 69° East 212 244 7,700 1,980 Climbing FlightAware ADS-B
08:59PM 39.9408 -104.6330 67° East 222 255 8,200 1,560 Climbing FlightAware ADS-B
08:59PM 39.9456 -104.6190 66° East 236 272 8,400 1,200 Climbing FlightAware ADS-B
08:59PM 39.9470 -104.6140 70° East 239 275 8,500 1,200 Climbing FlightAware ADS-B
08:59PM 39.9490 -104.6060 72° East 244 281 8,600 600 Climbing FlightAware ADS-B
09:00PM 39.9499 -104.6000 79° East 249 287 8,600 600 Level FlightAware ADS-B
09:00PM 39.9505 -104.5910 85° East 255 293 8,700 1,260 Climbing FlightAware ADS-B
09:00PM 39.9505 -104.5780 90° East 262 302 8,900 1,620 Climbing FlightAware ADS-B
09:00PM 39.9505 -104.5550 90° East 275 316 9,300 1,500 Climbing FlightAware ADS-B
09:00PM 39.9508 -104.5330 89° East 287 330 9,600 1,380 Climbing FlightAware ADS-B
09:00PM 39.9506 -104.5200 91° East 293 337 9,800 1,500 Climbing FlightAware ADS-B
09:00PM 39.9503 -104.5130 93° East 296 341 9,900 1,560 Climbing FlightAware ADS-B
09:01PM 39.9472 -104.4580 94° East 309 356 10,700 1,800 Climbing FlightAware ADS-B
09:01PM 39.9438 -104.4000 94° East 332 382 11,700 1,680 Climbing FlightAware ADS-B
09:02PM 39.9411 -104.3370 93° East 363 418 12,400 1,560 Climbing FlightAware ADS-B
09:02PM 39.9402 -104.2940 92° East 379 436 13,000 2,400 Climbing FlightAware ADS-B
09:03PM 39.9402 -104.2230 90° East 391 450 14,400 2,640 Climbing FlightAware ADS-B
09:03PM 39.9415 -104.1490 89° East 406 467 15,700 2,640 Climbing FlightAware ADS-B
09:04PM 39.9439 -104.0760 88° East 410 472 17,100 2,400 Climbing FlightAware ADS-B
09:04PM 39.9453 -104.0000 89° East 425 489 18,100 1,620 Climbing FlightAware ADS-B
09:05PM 39.9458 -103.9200 90° East 450 518 18,800 1,500 Climbing FlightAware ADS-B
09:05PM 39.9465 -103.8420 89° East 464 534 19,600 2,040 Climbing FlightAware ADS-B
09:06PM 39.9466 -103.7560 90° East 469 540 20,800 2,220 Climbing FlightAware ADS-B
09:06PM 39.9462 -103.6700 90° East 476 548 21,900 2,400 Climbing FlightAware ADS-B
09:07PM 39.9461 -103.5720 90° East 477 549 23,400 2,700 Climbing FlightAware ADS-B
09:07PM 39.9460 -103.4870 90° East 470 541 24,800 2,160 Climbing FlightAware ADS-B
09:08PM 39.9458 -103.4000 90° East 483 556 25,600 1,380 Climbing FlightAware ADS-B
09:08PM 39.9457 -103.3110 90° East 496 571 26,200 1,260 Climbing FlightAware ADS-B
09:09PM 39.9455 -103.2190 90° East 508 585 26,900 1,140 Climbing FlightAware ADS-B
09:09PM 39.9446 -103.1230 91° East 522 601 27,400 960 Climbing FlightAware ADS-B
09:10PM 39.9439 -103.0510 91° East 532 612 27,800 1,320 Climbing FlightAware ADS-B
09:10PM 39.9446 -103.0240 88° East 534 615 28,100 1,740 Climbing FlightAware ADS-B
09:10PM 39.9492 -102.9750 83° East 539 620 28,500 1,260 Climbing FlightAware ADS-B
09:10PM 39.9533 -102.9480 79° East 542 624 28,600 960 Climbing FlightAware ADS-B
09:11PM 39.9703 -102.8810 72° East 545 627 29,000 1,020 Climbing FlightAware ADS-B
09:11PM 39.9829 -102.8470 64° Northeast 547 629 29,200 960 Climbing FlightAware ADS-B
09:11PM 40.0242 -102.7640 57° Northeast 549 632 29,700 600 Climbing FlightAware ADS-B
09:12PM 40.0676 -102.6810 56° Northeast 567 652 29,800 660 Climbing FlightAware ADS-B
09:12PM 40.1124 -102.5950 56° Northeast 574 661 30,400 1,260 Climbing FlightAware ADS-B
09:13PM 40.1576 -102.5080 56° Northeast 577 664 31,100 1,500 Climbing FlightAware ADS-B
09:13PM 40.2029 -102.4220 55° Northeast 578 665 31,900 1,200 Climbing FlightAware ADS-B
09:14PM 40.2483 -102.3340 56° Northeast 588 677 32,300 660 Climbing FlightAware ADS-B
09:14PM 40.2946 -102.2450 56° Northeast 596 686 32,600 660 Climbing FlightAware ADS-B
09:15PM 40.3415 -102.1530 56° Northeast 603 694 33,000 360 Climbing FlightAware ADS-B
09:15PM 40.3884 -102.0620 56° Northeast 608 700 33,000  Level FlightAware ADS-B
09:16PM 40.4362 -101.9680 56° Northeast 606 697 33,000  Level FlightAware ADS-B
09:16PM 40.4831 -101.8770 56° Northeast 607 699 33,000  Level FlightAware ADS-B
09:17PM 40.5302 -101.7840 56° Northeast 608 700 33,000  Level FlightAware ADS-B
09:17PM 40.5770 -101.6920 56° Northeast 610 702 33,000  Level FlightAware ADS-B
09:18PM 40.6241 -101.5990 56° Northeast 608 700 33,000  Level FlightAware ADS-B
09:18PM 40.6740 -101.5000 56° Northeast 605 696 33,000  Level FlightAware ADS-B
09:19PM 40.7212 -101.4060 56° Northeast 605 696 33,000  Level FlightAware ADS-B
09:19PM 40.7720 -101.3050 56° Northeast 609 701 33,000  Level FlightAware ADS-B
09:20PM 40.8500 -101.1530 56° Northeast 606 697 33,000  Level FlightAware
09:21PM 40.9170 -101.0220 56° Northeast 606 697 33,000  Level FlightAware
09:22PM 40.9700 -100.9180 56° Northeast 606 697 33,000  Level FlightAware
09:23PM 41.0230 -100.8130 56° Northeast 606 697 33,000  Level FlightAware
09:23PM 41.0760 -100.7080 56° Northeast 606 697 33,000  Level FlightAware
09:24PM 41.1300 -100.6030 56° Northeast 606 697 33,000  Level FlightAware
09:25PM 41.1960 -100.4720 56° Northeast 606 697 33,000  Level FlightAware
09:25PM 41.2500 -100.3670 56° Northeast 606 697 33,000  Level FlightAware
09:26PM 41.3030 -100.2620 56° Northeast 606 697 33,000  Level FlightAware
09:27PM 41.3560 -100.1570 56° Northeast 606 697 33,000  Level FlightAware
09:27PM 41.4100 -100.0510 56° Northeast 606 697 33,000  Level FlightAware
09:28PM 41.4760 -99.9200 56° Northeast 606 697 33,000  Level FlightAware
09:29PM 41.5290 -99.8140 56° Northeast 606 697 33,000  Level FlightAware
09:30PM 41.7708 -99.5031 56° Northeast 606 697 33,000  Level Denver Center
09:31PM 41.8717 -99.3183 54° Northeast 609 701 33,000  Level Denver Center
09:32PM 41.9711 -99.1339 54° Northeast 607 699 33,000  Level Denver Center
09:32PM 42.0303 -99.0231 54° Northeast 607 699 33,000  Level Minneapolis Center
09:33PM 42.1289 -98.8381 54° Northeast 606 697 33,000  Level Minneapolis Center
09:34PM 42.2272 -98.6533 54° Northeast 604 695 33,000  Level Minneapolis Center
09:35PM 42.3236 -98.4675 55° Northeast 603 694 33,000  Level Minneapolis Center
09:36PM 42.4211 -98.2842 54° Northeast 601 692 33,000  Level Minneapolis Center
09:37PM 42.5169 -98.0956 55° Northeast 604 695 33,000  Level Minneapolis Center
09:38PM 42.6328 -97.8733 55° Northeast 603 694 33,000  Level Minneapolis Center
09:39PM 42.7314 -97.6819 55° Northeast 600 690 33,000  Level Minneapolis Center
09:40PM 42.8264 -97.4969 55° Northeast 599 689 33,000  Level Minneapolis Center
09:41PM 42.9203 -97.3083 56° Northeast 602 693 33,000  Level Minneapolis Center
09:42PM 43.0147 -97.1222 55° Northeast 599 689 33,000  Level Minneapolis Center
09:44PM 43.1092 -96.9353 55° Northeast 600 690 33,000  Level Minneapolis Center
09:45PM 43.2031 -96.7453 56° Northeast 603 694 33,000  Level Minneapolis Center
09:46PM 43.2956 -96.5547 56° Northeast 604 695 33,000  Level Minneapolis Center
09:47PM 43.3883 -96.3669 56° Northeast 600 690 33,000  Level Minneapolis Center
09:48PM 43.4986 -96.1411 56° Northeast 598 688 33,000  Level Minneapolis Center
09:49PM 43.5908 -95.9503 56° Northeast 602 693 33,000  Level Minneapolis Center
09:50PM 43.6828 -95.7628 56° Northeast 599 689 33,000  Level Minneapolis Center
09:51PM 43.7731 -95.5719 57° Northeast 599 689 33,000  Level Minneapolis Center
09:52PM 43.8631 -95.3817 57° Northeast 597 687 33,000  Level Minneapolis Center
09:53PM 43.9536 -95.1917 56° Northeast 597 687 33,000  Level Minneapolis Center
09:54PM 44.0428 -95.0019 57° Northeast 593 682 33,000  Level Minneapolis Center
09:55PM 44.1494 -94.7728 57° Northeast 592 681 33,000  Level Minneapolis Center
09:56PM 44.2308 -94.5964 57° Northeast 591 680 33,000  Level Minneapolis Center
09:57PM 44.3197 -94.4019 57° Northeast 594 684 33,000  Level Minneapolis Center
09:58PM 44.4086 -94.2067 57° Northeast 597 687 33,000  Level Minneapolis Center
10:04PM 44.9360 -93.0420 57° Northeast 604 695 33,000  Level FlightAware
10:04PM 44.9900 -92.9250 57° Northeast 604 695 33,000  Level FlightAware
10:05PM 45.0610 -92.7630 58° Northeast 604 695 33,000  Level FlightAware
10:06PM 45.1230 -92.6210 58° Northeast 604 695 33,000  Level FlightAware
10:06PM 45.1890 -92.4710 58° Northeast 604 695 33,000  Level FlightAware
10:07PM 45.2470 -92.3390 58° Northeast 603 694 33,000  Level FlightAware
10:08PM 45.3060 -92.2040 58° Northeast 603 694 33,000  Level FlightAware
10:08PM 45.3730 -92.0470 59° Northeast 603 694 33,000  Level FlightAware
10:09PM 45.4320 -91.9120 58° Northeast 604 695 33,000  Level FlightAware
10:10PM 45.4950 -91.7640 59° Northeast 604 695 33,000  Level FlightAware
10:11PM 45.5540 -91.6270 58° Northeast 607 699 33,000  Level FlightAware
10:11PM 45.6120 -91.4890 59° Northeast 607 699 33,000  Level FlightAware
10:12PM 45.6780 -91.3330 59° Northeast 608 700 33,000  Level FlightAware
10:13PM 45.7350 -91.1960 59° Northeast 608 700 33,000  Level FlightAware
10:13PM 45.8000 -91.0430 59° Northeast 608 700 33,000  Level FlightAware
10:14PM 45.8570 -90.9040 59° Northeast 609 701 33,000  Level FlightAware
10:15PM 45.9140 -90.7670 59° Northeast 608 700 33,000  Level FlightAware
10:15PM 45.9800 -90.6070 59° Northeast 607 699 33,000  Level FlightAware
10:16PM 46.0370 -90.4680 59° Northeast 607 699 33,000  Level FlightAware
10:17PM 46.0990 -90.3150 60° Northeast 607 699 33,000  Level FlightAware
10:18PM 46.1550 -90.1760 60° Northeast 607 699 33,000  Level FlightAware
10:18PM 46.2120 -90.0350 60° Northeast 607 699 33,000  Level FlightAware
10:19PM 46.2760 -89.8760 60° Northeast 606 697 33,000  Level FlightAware
10:20PM 46.3320 -89.7340 60° Northeast 604 695 33,000  Level FlightAware
10:20PM 46.3930 -89.5800 60° Northeast 601 692 33,000  Level FlightAware
10:21PM 46.4460 -89.4480 60° Northeast 601 692 33,000  Level FlightAware
10:22PM 46.4930 -89.3290 60° Northeast 601 692 33,000  Level FlightAware
10:22PM 46.5400 -89.2100 60° Northeast 601 692 33,000  Level FlightAware
10:23PM 46.5870 -89.0910 60° Northeast 601 692 33,000  Level FlightAware
10:24PM 46.6470 -88.9420 60° Northeast 601 692 33,000  Level FlightAware
10:25PM 46.6940 -88.8220 60° Northeast 601 692 33,000  Level FlightAware
10:25PM 46.7410 -88.7030 60° Northeast 601 692 33,000  Level FlightAware
10:26PM 46.7880 -88.5830 60° Northeast 601 692 33,000  Level FlightAware
10:27PM 46.8360 -88.4640 59° Northeast 601 692 33,000  Level FlightAware
10:27PM 46.8950 -88.3140 60° Northeast 601 692 33,000  Level FlightAware
10:28PM 46.9420 -88.1940 60° Northeast 601 692 33,000  Level FlightAware
10:29PM 46.9890 -88.0740 60° Northeast 601 692 33,000  Level FlightAware
10:29PM 47.0360 -87.9540 60° Northeast 601 692 33,000  Level FlightAware
10:30PM 47.0840 -87.8340 60° Northeast 601 692 33,000  Level FlightAware
10:30PM 47.2203 -87.5169 60° Northeast 594 684 33,000  Level Minneapolis Center
10:31PM 47.2333 -87.3833 82° East 590 679 33,000  Level Winnipeg Center
10:32PM 47.3167 -87.2000 56° Northeast 600 690 33,000  Level Winnipeg Center
10:37PM 47.8320 -86.1410 56° Northeast 601 692 33,000  Level FlightAware
10:38PM 47.9030 -85.9750 57° Northeast 600 690 33,000  Level FlightAware
10:39PM 47.9710 -85.8170 57° Northeast 600 690 33,000  Level FlightAware
10:39PM 48.0350 -85.6690 57° Northeast 600 690 33,000  Level FlightAware
10:40PM 48.1110 -85.4850 58° Northeast 598 688 33,000  Level FlightAware
10:41PM 48.1740 -85.3340 58° Northeast 598 688 33,000  Level FlightAware
10:41PM 48.2260 -85.2110 58° Northeast 597 687 33,000  Level FlightAware
10:42PM 48.2930 -85.0510 58° Northeast 598 688 33,000  Level FlightAware
10:43PM 48.3780 -84.8450 58° Northeast 598 688 33,000  Level FlightAware
10:44PM 48.4240 -84.7340 58° Northeast 598 688 33,000  Level FlightAware
10:45PM 48.4940 -84.5610 59° Northeast 598 688 33,000  Level FlightAware
10:45PM 48.5510 -84.4220 58° Northeast 599 689 33,000  Level FlightAware
10:46PM 48.6170 -84.2580 59° Northeast 599 689 33,000  Level FlightAware
10:47PM 48.6720 -84.1240 58° Northeast 599 689 33,000  Level FlightAware
10:47PM 48.7220 -84.0030 58° Northeast 599 689 33,000  Level FlightAware
10:48PM 48.7710 -83.8820 58° Northeast 599 689 33,000  Level FlightAware
10:49PM 48.8340 -83.7310 58° Northeast 599 689 33,000  Level FlightAware
10:49PM 48.8840 -83.6090 58° Northeast 599 689 33,000  Level FlightAware
10:50PM 48.9340 -83.4870 58° Northeast 599 689 33,000  Level FlightAware
10:51PM 48.9840 -83.3660 58° Northeast 599 689 33,000  Level FlightAware
10:51PM 49.0340 -83.2440 58° Northeast 599 689 33,000  Level FlightAware
10:52PM 49.0960 -83.0910 58° Northeast 599 689 33,000  Level FlightAware
10:53PM 49.1460 -82.9690 58° Northeast 599 689 33,000  Level FlightAware
10:54PM 49.1960 -82.8470 58° Northeast 599 689 33,000  Level FlightAware
10:54PM 49.2460 -82.7250 58° Northeast 599 689 33,000  Level FlightAware
10:55PM 49.2960 -82.6020 58° Northeast 599 689 33,000  Level FlightAware
10:56PM 49.3580 -82.4490 58° Northeast 599 689 33,000  Level FlightAware
10:56PM 49.4500 -82.0833 58° Northeast 590 679 33,000  Level Montreal Center
10:57PM 49.5333 -81.8500 61° Northeast 590 679 33,000  Level Montreal Center
10:58PM 49.6167 -81.6500 57° Northeast 590 679 33,000  Level Montreal Center
10:59PM 49.7000 -81.4333 59° Northeast 590 679 33,000  Level Montreal Center
11:00PM 49.7667 -81.2000 66° East 590 679 33,000  Level Montreal Center
11:01PM 49.8667 -80.9833 54° Northeast 580 667 33,000  Level Montreal Center
11:02PM 49.9500 -80.7500 61° Northeast 590 679 33,000  Level Montreal Center
11:03PM 50.0167 -80.5167 66° East 580 667 33,000  Level Montreal Center
11:04PM 50.1000 -80.3167 57° Northeast 590 679 33,000  Level Montreal Center
11:05PM 50.1667 -80.0667 67° East 590 679 33,000  Level Montreal Center
11:06PM 50.2500 -79.8667 57° Northeast 590 679 33,000  Level Montreal Center
11:07PM 50.3333 -79.6333 61° Northeast 590 679 33,000  Level Montreal Center
11:08PM 50.4333 -79.4333 52° Northeast 590 679 33,000  Level Montreal Center
11:09PM 50.5167 -79.2000 61° Northeast 590 679 33,000  Level Montreal Center
11:10PM 50.6000 -78.9667 61° Northeast 590 679 33,000  Level Montreal Center
11:11PM 50.6833 -78.7500 59° Northeast 590 679 33,000  Level Montreal Center
11:12PM 50.7667 -78.5167 60° Northeast 590 679 33,000  Level Montreal Center
11:13PM 50.8667 -78.3167 52° Northeast 590 679 33,000  Level Montreal Center
11:14PM 50.9500 -78.0833 60° Northeast 590 679 33,000  Level Montreal Center
11:15PM 51.0167 -77.8333 67° East 590 679 33,000  Level Montreal Center
11:16PM 51.1000 -77.6333 56° Northeast 590 679 33,000  Level Montreal Center
11:17PM 51.2000 -77.3833 57° Northeast 590 679 33,000  Level Montreal Center
11:18PM 51.2667 -77.1833 62° Northeast 590 679 33,000  Level Montreal Center
11:19PM 51.3500 -76.9333 62° Northeast 590 679 33,000  Level Montreal Center
11:20PM 51.4333 -76.7167 58° Northeast 580 667 33,000  Level Montreal Center
11:21PM 51.5000 -76.4833 65° Northeast 580 667 33,000  Level Montreal Center
11:22PM 51.5833 -76.2667 58° Northeast 570 656 33,000  Level Montreal Center
11:23PM 51.6667 -76.0167 62° Northeast 570 656 33,000  Level Montreal Center
11:24PM 51.7333 -75.8000 64° Northeast 560 644 33,000  Level Montreal Center
11:25PM 51.8000 -75.5833 63° Northeast 560 644 33,000  Level Montreal Center
11:26PM 51.8833 -75.3667 58° Northeast 560 644 33,000  Level Montreal Center
11:27PM 51.9667 -75.1500 58° Northeast 570 656 33,000  Level Montreal Center
11:28PM 52.0333 -74.9000 66° East 560 644 33,000  Level Montreal Center
11:29PM 52.1167 -74.6833 58° Northeast 570 656 33,000  Level Montreal Center
11:30PM 52.2000 -74.4500 60° Northeast 570 656 33,000  Level Montreal Center
11:31PM 52.2667 -74.2333 63° Northeast 550 633 33,000 60 Level Montreal Center
11:32PM 52.3333 -74.0000 65° Northeast 550 633 33,200 300 Climbing Montreal Center
11:33PM 52.4000 -73.7833 63° Northeast 540 621 33,700 480 Climbing Montreal Center
11:34PM 52.4667 -73.5667 63° Northeast 530 610 34,200 480 Climbing Montreal Center
11:35PM 52.5333 -73.3333 65° Northeast 540 621 34,700 360 Climbing Montreal Center
11:36PM 52.6000 -73.1333 61° Northeast 540 621 35,000 120 Climbing Montreal Center
11:37PM 52.6833 -72.8833 61° Northeast 540 621 35,000  Level Montreal Center
11:38PM 52.7333 -72.6500 70° East 530 610 35,000  Level Montreal Center
11:39PM 52.8000 -72.4500 61° Northeast 520 598 35,000  Level Montreal Center
11:40PM 52.8667 -72.2333 63° Northeast 510 587 35,000  Level Montreal Center
11:41PM 52.9167 -72.0333 67° East 510 587 35,000  Level Montreal Center
11:42PM 53.0000 -71.8167 57° Northeast 510 587 35,000  Level Montreal Center
11:43PM 53.0500 -71.6000 69° East 510 587 35,000  Level Montreal Center
11:44PM 53.1167 -71.3833 63° Northeast 520 598 35,000  Level Montreal Center
11:45PM 53.1667 -71.1500 70° East 520 598 35,000  Level Montreal Center
11:46PM 53.2333 -70.9500 61° Northeast 520 598 35,000  Level Montreal Center
11:47PM 53.2833 -70.7167 70° East 520 598 35,000  Level Montreal Center
11:48PM 53.3500 -70.4833 64° Northeast 520 598 35,000  Level Montreal Center
11:49PM 53.4167 -70.2500 64° Northeast 530 610 35,000  Level Montreal Center
11:50PM 53.4833 -70.0500 61° Northeast 530 610 35,000  Level Montreal Center
11:51PM 53.5000 -69.9833 67° East 530 610 35,000  Level Gander Center
11:51PM 53.5333 -69.8167 71° East 530 610 35,000  Level Montreal Center
11:52PM 53.5833 -69.5833 70° East 530 610 35,000  Level Montreal Center
11:53PM 53.6500 -69.3333 66° East 530 610 35,000  Level Montreal Center
11:54PM 53.7000 -69.1333 67° East 530 610 35,000  Level Montreal Center
11:55PM 53.7500 -68.9000 70° East 530 610 35,000  Level Montreal Center
11:56PM 53.8167 -68.6833 62° Northeast 520 598 35,000  Level Montreal Center
11:57PM 53.8667 -68.4500 70° East 520 598 35,000  Level Montreal Center
11:58PM 53.9167 -68.2000 71° East 520 598 35,000  Level Montreal Center
11:59PM 53.9500 -67.9667 76° East 510 587 35,000  Level Montreal Center
12:00AM 54.0000 -67.7333 70° East 520 598 35,000  Level Montreal Center
12:01AM 54.0500 -67.4833 71° East 520 598 35,000  Level Montreal Center
12:02AM 54.0833 -67.2500 76° East 520 598 35,000  Level Montreal Center
12:03AM 54.1333 -67.0167 70° East 520 598 35,000  Level Montreal Center
12:04AM 54.1833 -66.8000 68° East 520 598 35,000  Level Montreal Center
12:05AM 54.2167 -66.5500 77° East 520 598 35,000  Level Montreal Center
12:06AM 54.2667 -66.3167 70° East 520 598 35,000  Level Montreal Center
12:07AM 54.3167 -66.0667 71° East 530 610 35,000  Level Montreal Center
12:08AM 54.3500 -65.8333 76° East 530 610 35,000  Level Montreal Center
12:09AM 54.4000 -65.5833 71° East 530 610 35,000  Level Montreal Center
12:10AM 54.4167 -65.3500 83° East 530 610 35,000  Level Montreal Center
12:11AM 54.4667 -65.1000 71° East 530 610 35,000  Level Montreal Center
12:12AM 54.5167 -64.8500 71° East 530 610 35,000  Level Montreal Center
12:13AM 54.5333 -64.7667 71° East 530 610 35,000  Level Gander Center
12:14AM 54.5667 -64.5333 76° East 530 610 35,000  Level Gander Center
12:15AM 54.6167 -64.2833 71° East 530 610 35,000  Level Gander Center
12:16AM 54.6500 -64.0500 76° East 530 610 35,000  Level Gander Center
12:17AM 54.6833 -63.8000 77° East 530 610 35,000  Level Gander Center
12:18AM 54.7167 -63.5667 76° East 530 610 35,000  Level Gander Center
12:19AM 54.7500 -63.3167 77° East 520 598 35,000  Level Gander Center
12:20AM 54.7833 -63.0833 76° East 520 598 35,000  Level Gander Center
12:21AM 54.8167 -62.8167 78° East 520 598 35,000 120 Level Gander Center
12:22AM 54.8667 -62.5833 69° East 510 587 35,300 300 Climbing Gander Center
12:23AM 54.9000 -62.3333 77° East 520 598 35,600 300 Climbing Gander Center
12:24AM 54.9333 -62.1000 76° East 520 598 35,900 300 Climbing Gander Center
12:25AM 54.9667 -61.8333 78° East 520 598 36,200 300 Climbing Gander Center
12:26AM 55.0000 -61.6000 76° East 520 598 36,500 300 Climbing Gander Center
12:27AM 55.0333 -61.3667 76° East 520 598 36,800 240 Climbing Gander Center
12:28AM 55.0667 -61.1000 78° East 520 598 37,000 60 Climbing Gander Center
12:29AM 55.1000 -60.8667 76° East 520 598 37,000  Level Gander Center
12:30AM 55.1167 -60.6333 83° East 510 587 37,000  Level Gander Center
12:31AM 55.1500 -60.3833 77° East 510 587 37,000  Level Gander Center
12:32AM 55.1833 -60.1333 77° East 510 587 37,000  Level Gander Center
12:33AM 55.2167 -59.9000 76° East 520 598 37,000  Level Gander Center
12:34AM 55.2333 -59.6333 84° East 520 598 37,000  Level Gander Center
12:34AM 55.2667 -59.4333 74° East 510 587 37,000  Level Gander Center
12:35AM 55.2833 -59.2000 83° East 510 587 37,000  Level Gander Center
12:36AM 55.3167 -58.9667 76° East 520 598 37,000  Level Gander Center
12:37AM 55.3333 -58.7000 84° East 520 598 37,000  Level Gander Center
12:38AM 55.3667 -58.4667 76° East 510 587 37,000  Level Gander Center
12:39AM 55.4000 -58.2000 77° East 510 587 37,000  Level Gander Center
12:40AM 55.4167 -57.9500 83° East 510 587 37,000  Level Gander Center
12:41AM 55.4500 -57.7167 76° East 510 587 37,000  Level Gander Center
12:42AM 55.4833 -57.4833 76° East 510 587 37,000  Level Gander Center
12:43AM 55.4833 -57.2500 90° East 510 587 37,000  Level Gander Center
12:44AM 55.5167 -56.9667 78° East 510 587 37,000  Level Gander Center
12:45AM 55.5333 -56.7333 83° East 510 587 37,000  Level Gander Center
12:46AM 55.5667 -56.5000 76° East 510 587 37,000  Level Gander Center
12:47AM 55.5833 -56.2500 83° East 510 587 37,000  Level Gander Center
12:48AM 55.6000 -55.9833 84° East 500 575 37,000  Level Gander Center
12:49AM 55.6333 -55.7500 76° East 500 575 37,000  Level Gander Center
12:50AM 55.6500 -55.5000 83° East 500 575 37,000  Level Gander Center
12:51AM 55.6667 -55.2667 83° East 500 575 37,000  Level Gander Center
12:52AM 55.7000 -55.0167 77° East 510 587 37,000  Level Gander Center
12:53AM 55.7167 -54.7500 84° East 500 575 37,000  Level Gander Center
12:54AM 55.7167 -54.5167 90° East 510 587 37,000  Level Gander Center
12:55AM 55.7333 -54.2500 84° East 500 575 37,000  Level Gander Center
12:56AM 55.7667 -54.0000 77° East 500 575 37,000  Level Gander Center
12:57AM 55.7833 -53.7667 83° East 510 587 37,000  Level Gander Center
12:58AM 55.8000 -53.5167 83° East 510 587 37,000  Level Gander Center
12:59AM 55.8167 -53.2833 83° East 510 587 37,000  Level Gander Center
01:00AM 55.8333 -53.0000 84° East 510 587 37,000  Level Gander Center
01:01AM 55.8500 -52.7833 82° East 500 575 37,000  Level Gander Center
01:02AM 55.8667 -52.5167 84° East 500 575 37,000  Level Gander Center
01:03AM 55.8833 -52.2667 83° East 500 575 37,000  Level Gander Center
01:04AM 55.8833 -52.0333 90° East 500 575 37,000  Level Gander Center
01:06AM 55.9167 -51.7500 78° East 490 564 37,000  Level Gander Center
01:07AM 55.9333 -51.5167 83° East 490 564 37,000  Level Gander Center
01:08AM 55.9333 -51.2667 90° East 500 575 37,000  Level Gander Center
01:09AM 55.9333 -51.0000 90° East 500 575 37,000  Level Gander Center
01:10AM 55.9500 -50.7500 83° East 500 575 37,000  Level Gander Center
01:11AM 55.9679 -50.4896 83° East  Level FlightAware Approximate
01:18AM 56.0471 -48.6559 86° East  Level FlightAware Approximate
01:19AM 56.0546 -48.3933 87° East  Level FlightAware Approximate
01:20AM 56.0616 -48.1306 87° East  Level FlightAware Approximate
01:21AM 56.0680 -47.8678 87° East  Level FlightAware Approximate
01:22AM 56.0738 -47.6049 88° East  Level FlightAware Approximate
01:23AM 56.0790 -47.3419 88° East  Level FlightAware Approximate
01:24AM 56.0837 -47.0789 88° East  Level FlightAware Approximate
01:25AM 56.0879 -46.8158 88° East  Level FlightAware Approximate
01:26AM 56.0914 -46.5526 88° East  Level FlightAware Approximate
01:27AM 56.0945 -46.2894 89° East  Level FlightAware Approximate
01:27AM 56.0833 -46.5167 90° East 510 587 37,000  Level Gander Center
01:28AM 56.0969 -46.0262 89° East  Level FlightAware Approximate
01:28AM 56.0833 -46.2667 90° East 510 587 37,000  Level Gander Center
01:29AM 56.0988 -45.7629 89° East  Level FlightAware Approximate
01:29AM 56.0833 -46.0000 90° East 510 587 37,000  Level Gander Center
01:30AM 56.1002 -45.4996 89° East  Level FlightAware Approximate
01:30AM 56.0833 -45.7500 90° East 510 587 37,000  Level Gander Center
01:31AM 56.1009 -45.2364 90° East  Level FlightAware Approximate
01:31AM 56.1000 -45.5000 83° East 510 587 37,000  Level Gander Center
01:32AM 56.1012 -44.9730 90° East  Level FlightAware Approximate
01:32AM 56.0833 -45.2333 96° East 510 587 37,000  Level Gander Center
01:33AM 56.1000 -44.9833 83° East 520 598 37,000  Level Gander Center
01:34AM 56.1000 -44.7333 90° East 510 587 37,000  Level Gander Center
01:35AM 56.1000 -44.4667 90° East 510 587 37,000  Level Gander Center
01:36AM 56.1000 -44.2167 90° East 510 587 37,000  Level Gander Center
01:37AM 56.1000 -43.9833 90° East 510 587 37,000  Level Gander Center
01:38AM 56.0833 -43.7000 96° East 510 587 37,000  Level Gander Center
01:39AM 56.0833 -43.4667 90° East 510 587 37,000  Level Gander Center
01:40AM 56.0833 -43.2167 90° East 510 587 37,000  Level Gander Center
01:41AM 56.0833 -42.9333 90° East 510 587 37,000  Level Gander Center
01:42AM 56.0833 -42.7000 90° East 520 598 37,000  Level Gander Center
01:43AM 56.0667 -42.4667 97° East 520 598 37,000  Level Gander Center
01:45AM 56.0567 -41.9451 92° East  Level FlightAware Approximate
01:52AM 56.0028 -40.0759 92° East  Level FlightAware Approximate
01:53AM 55.9886 -39.8099 96° East  Level FlightAware Approximate
01:54AM 55.9721 -39.5445 96° East  Level FlightAware Approximate
01:55AM 55.9551 -39.2793 96° East  Level FlightAware Approximate
01:56AM 55.9375 -39.0143 97° East  Level FlightAware Approximate
01:57AM 55.9194 -38.7496 97° East  Level FlightAware Approximate
01:58AM 55.9007 -38.4852 97° East  Level FlightAware Approximate
01:59AM 55.8814 -38.2210 97° East  Level FlightAware Approximate
02:00AM 55.8616 -37.9570 98° East  Level FlightAware Approximate
02:01AM 55.8411 -37.6934 98° East  Level FlightAware Approximate
02:02AM 55.8202 -37.4300 98° East  Level FlightAware Approximate
02:03AM 55.7986 -37.1669 98° East  Level FlightAware Approximate
02:04AM 55.7766 -36.9041 98° East  Level FlightAware Approximate
02:05AM 55.7539 -36.6416 99° East  Level FlightAware Approximate
02:06AM 55.7307 -36.3794 99° East  Level FlightAware Approximate
02:07AM 55.7069 -36.1175 99° East  Level FlightAware Approximate
02:08AM 55.6826 -35.8560 99° East  Level FlightAware Approximate
02:09AM 55.6577 -35.5947 99° East  Level FlightAware Approximate
02:10AM 55.6323 -35.3339 100° East  Level FlightAware Approximate
02:11AM 55.6063 -35.0733 100° East  Level FlightAware Approximate
02:12AM 55.5797 -34.8131 100° East  Level FlightAware Approximate
02:13AM 55.5526 -34.5533 100° East  Level FlightAware Approximate
02:14AM 55.5250 -34.2938 101° East  Level FlightAware Approximate
02:15AM 55.4976 -34.0344 100° East  Level FlightAware Approximate
02:16AM 55.4700 -33.7753 101° East  Level FlightAware Approximate
02:17AM 55.4418 -33.5165 101° East  Level FlightAware Approximate
02:18AM 55.4131 -33.2581 101° East  Level FlightAware Approximate
02:19AM 55.3838 -33.0001 101° East  Level FlightAware Approximate
02:20AM 55.3540 -32.7425 101° East  Level FlightAware Approximate
02:21AM 55.3237 -32.4852 102° East  Level FlightAware Approximate
02:22AM 55.2928 -32.2284 102° East  Level FlightAware Approximate
02:23AM 55.2614 -31.9720 102° East  Level FlightAware Approximate
02:24AM 55.2294 -31.7160 102° East  Level FlightAware Approximate
02:25AM 55.1969 -31.4604 102° East  Level FlightAware Approximate
02:26AM 55.1639 -31.2052 103° East  Level FlightAware Approximate
02:27AM 55.1304 -30.9504 103° East  Level FlightAware Approximate
02:28AM 55.0963 -30.6961 103° East  Level FlightAware Approximate
02:29AM 55.0617 -30.4422 103° East  Level FlightAware Approximate
02:30AM 55.0266 -30.1887 103° East  Level FlightAware Approximate
02:31AM 55.0027 -29.9340 86° East  Level FlightAware Approximate
02:32AM 55.0130 -29.6740 86° East  Level FlightAware Approximate
02:33AM 55.0227 -29.4140 86° East  Level FlightAware Approximate
02:34AM 55.0318 -29.1538 86° East  Level FlightAware Approximate
02:35AM 55.0404 -28.8935 87° East  Level FlightAware Approximate
02:36AM 55.0485 -28.6331 87° East  Level FlightAware Approximate
02:37AM 55.0560 -28.3727 87° East  Level FlightAware Approximate
02:38AM 55.0629 -28.1121 87° East  Level FlightAware Approximate
02:39AM 55.0692 -27.8514 87° East  Level FlightAware Approximate
02:40AM 55.0751 -27.5906 88° East  Level FlightAware Approximate
02:41AM 55.0803 -27.3298 88° East  Level FlightAware Approximate
02:42AM 55.0850 -27.0689 88° East  Level FlightAware Approximate
02:43AM 55.0892 -26.8080 88° East  Level FlightAware Approximate
02:44AM 55.0928 -26.5470 89° East  Level FlightAware Approximate
02:45AM 55.0958 -26.2859 89° East  Level FlightAware Approximate
02:46AM 55.0983 -26.0249 89° East  Level FlightAware Approximate
02:47AM 55.1002 -25.7638 89° East  Level FlightAware Approximate
02:48AM 55.1015 -25.5026 89° East  Level FlightAware Approximate
02:49AM 55.1023 -25.2415 90° East  Level FlightAware Approximate
02:50AM 55.1026 -24.9803 90° East  Level FlightAware Approximate
02:51AM 55.1022 -24.7192 90° East  Level FlightAware Approximate
02:52AM 55.1014 -24.4580 90° East  Level FlightAware Approximate
02:53AM 55.0999 -24.1969 90° East  Level FlightAware Approximate
02:54AM 55.0979 -23.9358 91° East  Level FlightAware Approximate
02:55AM 55.0954 -23.6747 91° East  Level FlightAware Approximate
02:56AM 55.0923 -23.4137 91° East  Level FlightAware Approximate
02:57AM 55.0886 -23.1527 91° East  Level FlightAware Approximate
02:58AM 55.0844 -22.8918 92° East  Level FlightAware Approximate
02:59AM 55.0796 -22.6309 92° East  Level FlightAware Approximate
03:00AM 55.0742 -22.3701 92° East  Level FlightAware Approximate
03:01AM 55.0683 -22.1094 92° East  Level FlightAware Approximate
03:02AM 55.0619 -21.8487 92° East  Level FlightAware Approximate
03:03AM 55.0549 -21.5881 93° East  Level FlightAware Approximate
03:04AM 55.0473 -21.3276 93° East  Level FlightAware Approximate
03:05AM 55.0392 -21.0673 93° East  Level FlightAware Approximate
03:06AM 55.0305 -20.8070 93° East  Level FlightAware Approximate
03:07AM 55.0212 -20.5468 93° East  Level FlightAware Approximate
03:08AM 55.0115 -20.2868 94° East  Level FlightAware Approximate
03:09AM 55.0011 -20.0269 94° East  Level FlightAware Approximate
03:10AM 54.9897 -19.7672 94° East  Level FlightAware Approximate
03:11AM 54.9776 -19.5077 95° East  Level FlightAware Approximate
03:12AM 54.9650 -19.2484 95° East  Level FlightAware Approximate
03:13AM 54.9518 -18.9892 95° East  Level FlightAware Approximate
03:14AM 54.9380 -18.7301 95° East  Level FlightAware Approximate
03:15AM 54.9238 -18.4713 95° East  Level FlightAware Approximate
03:16AM 54.9089 -18.2126 96° East  Level FlightAware Approximate
03:17AM 54.8936 -17.9542 96° East  Level FlightAware Approximate
03:18AM 54.8776 -17.6959 96° East  Level FlightAware Approximate
03:19AM 54.8611 -17.4379 96° East  Level FlightAware Approximate
03:20AM 54.8441 -17.1800 96° East  Level FlightAware Approximate
03:21AM 54.8266 -16.9224 97° East  Level FlightAware Approximate
03:22AM 54.8084 -16.6650 97° East  Level FlightAware Approximate
03:23AM 54.7898 -16.4079 97° East  Level FlightAware Approximate
03:24AM 54.7706 -16.1509 97° East  Level FlightAware Approximate
03:25AM 54.7509 -15.8943 97° East  Level FlightAware Approximate
03:26AM 54.7306 -15.6378 98° East  Level FlightAware Approximate
03:27AM 54.7098 -15.3817 98° East  Level FlightAware Approximate
03:28AM 54.6884 -15.1258 98° East  Level FlightAware Approximate
03:29AM 54.6665 -14.8702 98° East  Level FlightAware Approximate
03:30AM 54.6441 -14.6148 99° East  Level FlightAware Approximate
03:31AM 54.6211 -14.3598 99° East  Level FlightAware Approximate
03:32AM 54.5976 -14.1050 99° East  Level FlightAware Approximate
03:33AM 54.5735 -13.8506 99° East  Level FlightAware Approximate
03:34AM 54.5490 -13.5964 99° East  Level FlightAware Approximate
03:35AM 54.5238 -13.3426 100° East  Level FlightAware Approximate
03:35AM 54.9870 -13.4840 100° East 567 652 37,000  Level FlightAware
03:36AM 54.4982 -13.0890 100° East  Level FlightAware Approximate
03:36AM 54.9840 -13.2810 91° East 567 652 37,000  Level FlightAware
03:37AM 54.9810 -13.0910 91° East 567 652 37,000  Level FlightAware
03:37AM 54.9770 -12.9130 92° East 568 654 37,000  Level FlightAware
03:38AM 54.9730 -12.7090 92° East 568 654 37,000  Level FlightAware
03:39AM 54.9590 -12.5260 98° East 556 640 37,000  Level FlightAware
03:39AM 54.9230 -12.3680 112° Southeast 547 629 37,000  Level FlightAware
03:40AM 54.8650 -12.1960 120° Southeast 540 621 37,000  Level FlightAware
03:41AM 54.8180 -12.0620 121° Southeast 539 620 37,000  Level FlightAware
03:41AM 54.7530 -11.8760 121° Southeast 538 619 37,000  Level FlightAware
03:42AM 54.7020 -11.7290 121° Southeast 537 618 37,000  Level FlightAware
03:43AM 54.6490 -11.5820 122° Southeast 536 617 37,000  Level FlightAware
03:44AM 54.5910 -11.4180 121° Southeast 535 616 37,000  Level FlightAware
03:44AM 54.5390 -11.2720 122° Southeast 537 618 37,000  Level FlightAware
03:45AM 54.4810 -11.1130 122° Southeast 544 626 37,000  Level FlightAware
03:45AM 54.4400 -11.0000 122° Southeast 545 627 37,000  Level FlightAware
03:46AM 54.3730 -10.8150 122° Southeast 546 628 37,000  Level FlightAware
03:47AM 54.3130 -10.6510 122° Southeast 547 629 37,000  Level FlightAware
03:48AM 54.2640 -10.5190 122° Southeast 547 629 37,000  Level FlightAware
03:48AM 54.1970 -10.3380 122° Southeast 547 629 37,000  Level FlightAware
03:49AM 54.1430 -10.1960 123° Southeast 543 625 37,000  Level FlightAware
03:50AM 54.0810 -10.0310 123° Southeast 544 626 37,000  Level FlightAware
03:50AM 54.0340 -9.9060 123° Southeast 543 625 37,000  Level FlightAware
03:51AM 53.9710 -9.7400 123° Southeast 542 624 37,000  Level FlightAware
03:52AM 53.9090 -9.5800 123° Southeast 541 623 37,000  Level FlightAware
03:53AM 53.8550 -9.4400 123° Southeast 536 617 37,000  Level FlightAware
03:53AM 53.7930 -9.2800 123° Southeast 537 618 37,000  Level FlightAware
03:54AM 53.7390 -9.1410 123° Southeast 538 619 37,000  Level FlightAware
03:55AM 53.6830 -8.9990 124° Southeast 539 620 37,000 -1,560 Level FlightAware
03:55AM 53.6548 -8.9265 124° Southeast 502 578 35,500 -2,520 Descending FlightAware UK
03:55AM 53.6298 -8.8631 124° Southeast 502 578 35,500 3,300 Level FlightAware UK
03:55AM 53.6210 -8.8420 124° Southeast 540 621 37,000  Climbing FlightAware
03:56AM 53.5965 -8.7785 124° Southeast 504 580 35,500 -2,760 Descending FlightAware UK
03:56AM 53.5713 -8.7153 124° Southeast 502 578 35,500  Level FlightAware UK
03:56AM 53.5460 -8.6523 124° Southeast 506 582 35,500 4,080 Level FlightAware UK
03:56AM 53.5440 -8.6480 124° Southeast 544 626 37,000  Climbing FlightAware
03:57AM 53.5123 -8.5685 124° Southeast 504 580 35,500 -2,400 Descending FlightAware UK
03:57AM 53.4870 -8.5060 124° Southeast 504 580 35,500 4,500 Level FlightAware UK
03:57AM 53.4870 -8.5070 124° Southeast 542 624 37,000  Climbing FlightAware
03:57AM 53.4616 -8.4439 124° Southeast 502 578 35,500 -2,700 Descending FlightAware UK
03:58AM 53.4361 -8.3810 124° Southeast 502 578 35,500 3,720 Level FlightAware UK
03:58AM 53.4320 -8.3690 124° Southeast 541 623 37,000  Climbing FlightAware
03:58AM 53.4028 -8.2977 124° Southeast 502 578 35,500 -2,520 Descending FlightAware UK
03:58AM 53.3776 -8.2355 124° Southeast 502 578 35,500 3,300 Level FlightAware UK
03:58AM 53.3690 -8.2140 124° Southeast 541 623 37,000  Climbing FlightAware
03:59AM 53.3438 -8.1528 124° Southeast 500 575 35,500 -2,760 Descending FlightAware UK
03:59AM 53.3185 -8.0909 124° Southeast 498 573 35,500 3,600 Level FlightAware UK
03:59AM 53.3130 -8.0760 124° Southeast 540 621 37,000  Climbing FlightAware
03:59AM 53.2847 -8.0085 124° Southeast 498 573 35,500 -2,580 Descending FlightAware UK
04:00AM 53.2593 -7.9465 124° Southeast 500 575 35,500  Level FlightAware UK
04:00AM 53.2340 -7.8846 124° Southeast 498 573 35,500  Level FlightAware UK
04:00AM 53.2087 -7.8227 124° Southeast 496 571 35,500 3,300 Level FlightAware UK
04:00AM 53.1980 -7.7960 124° Southeast 541 623 37,000  Climbing FlightAware
04:01AM 53.1747 -7.7404 124° Southeast 496 571 35,500 -2,760 Descending FlightAware UK
04:01AM 53.1491 -7.6788 125° Southeast 498 573 35,500  Level FlightAware UK
04:01AM 53.1235 -7.6171 125° Southeast 498 573 35,500  Level FlightAware UK
04:02AM 53.0978 -7.5555 125° Southeast 500 575 35,500 3,720 Level FlightAware UK
04:02AM 53.0970 -7.5540 125° Southeast 544 626 37,000  Climbing FlightAware
04:02AM 53.0633 -7.4735 125° Southeast 496 571 35,500 -2,520 Descending FlightAware UK
04:02AM 53.0376 -7.4115 125° Southeast 500 575 35,500 4,080 Level FlightAware UK
04:02AM 53.0430 -7.4230 125° Southeast 542 624 37,000  Climbing FlightAware
04:03AM 53.0031 -7.3290 125° Southeast 500 575 35,500 -2,400 Descending FlightAware UK
04:03AM 52.9769 -7.2672 125° Southeast 496 571 35,500 3,600 Level FlightAware UK
04:03AM 52.9720 -7.2560 125° Southeast 547 629 37,000  Climbing FlightAware
04:03AM 52.9417 -7.1841 125° Southeast 498 573 35,500 -2,580 Descending FlightAware UK
04:04AM 52.9155 -7.1224 125° Southeast 498 573 35,500 3,900 Level FlightAware UK
04:04AM 52.9150 -7.1200 125° Southeast 544 626 37,000  Climbing FlightAware
04:04AM 52.8806 -7.0401 125° Southeast 500 575 35,500 -2,460 Descending FlightAware UK
04:04AM 52.8542 -6.9785 125° Southeast 500 575 35,500 3,420 Level FlightAware UK
04:05AM 52.8480 -6.9630 125° Southeast 544 626 37,000  Climbing FlightAware
04:05AM 52.8192 -6.8964 125° Southeast 504 580 35,500 -2,700 Descending FlightAware UK
04:05AM 52.7928 -6.8351 125° Southeast 500 575 35,500 3,720 Level FlightAware UK
04:05AM 52.7910 -6.8300 125° Southeast 540 621 37,000  Climbing FlightAware
04:06AM 52.7579 -6.7538 125° Southeast 496 571 35,500 -2,520 Descending FlightAware UK
04:06AM 52.7318 -6.6932 125° Southeast 498 573 35,500 3,300 Level FlightAware UK
04:06AM 52.7260 -6.6790 125° Southeast 542 624 37,000  Climbing FlightAware
04:06AM 52.6971 -6.6128 125° Southeast 496 571 35,500 -2,760 Descending FlightAware UK
04:07AM 52.6710 -6.5526 126° Southeast 492 566 35,500 3,600 Level FlightAware UK
04:07AM 52.6670 -6.5430 126° Southeast 542 624 37,000  Climbing FlightAware
04:07AM 52.6363 -6.4723 126° Southeast 498 573 35,500 -2,580 Descending FlightAware UK
04:07AM 52.6100 -6.4121 126° Southeast 496 571 35,500 3,180 Level FlightAware UK
04:07AM 52.5990 -6.3870 126° Southeast 543 625 37,000  Climbing FlightAware
04:08AM 52.5660 -6.3120 126° Southeast 496 571 35,500  Descending FlightAware UK
04:08AM 52.5400 -6.2530 126° Southeast 543 625 37,000  Climbing FlightAware
04:08AM 52.5132 -6.1916 126° Southeast 496 571 35,500 -2,700 Descending FlightAware UK
04:09AM 52.4867 -6.1315 126° Southeast 492 566 35,500 3,720 Level FlightAware UK
04:09AM 52.4820 -6.1200 126° Southeast 545 627 37,000  Climbing FlightAware
04:09AM 52.4514 -6.0512 126° Southeast 494 568 35,500 -2,520 Descending FlightAware UK
04:09AM 52.4248 -5.9909 126° Southeast 492 566 35,500 3,300 Level FlightAware UK
04:09AM 52.4150 -5.9700 126° Southeast 548 631 37,000  Climbing FlightAware
04:10AM 52.3888 -5.9100 126° Southeast 494 568 35,500 -2,760 Descending FlightAware UK
04:10AM 52.3618 -5.8496 126° Southeast 494 568 35,500 3,600 Level FlightAware UK
04:10AM 52.3550 -5.8350 126° Southeast 549 632 37,000  Climbing FlightAware
04:10AM 52.3259 -5.7692 126° Southeast 494 568 35,500 -2,580 Descending FlightAware UK
04:11AM 52.2989 -5.7089 126° Southeast 494 568 35,500 3,180 Level FlightAware UK
04:11AM 52.2860 -5.6810 126° Southeast 550 633 37,000  Climbing FlightAware
04:11AM 52.2539 -5.6086 126° Southeast 496 571 35,500  Descending FlightAware UK
04:11AM 52.2360 -5.5690 126° Southeast 550 633 37,000  Climbing FlightAware
04:12AM 52.2087 -5.5087 126° Southeast 494 568 35,500 -2,760 Descending FlightAware UK
04:12AM 52.1816 -5.4488 126° Southeast 494 568 35,500 3,000 Level FlightAware UK
04:12AM 52.1660 -5.4150 126° Southeast 550 633 37,000  Climbing FlightAware
04:13AM 52.1363 -5.3491 126° Southeast 494 568 35,500 -2,520 Descending FlightAware UK
04:13AM 52.1090 -5.2893 127° Southeast 496 571 35,500 3,300 Level FlightAware UK
04:13AM 52.0990 -5.2680 127° Southeast 554 638 37,000  Climbing FlightAware
04:13AM 52.0726 -5.2093 127° Southeast 498 573 35,500 -2,760 Descending FlightAware UK
04:14AM 52.0453 -5.1492 126° Southeast 498 573 35,500 3,600 Level FlightAware UK
04:14AM 52.0390 -5.1370 126° Southeast 554 638 37,000  Climbing FlightAware
04:14AM 52.0114 -5.0653 126° Southeast 498 573 35,500 -2,580 Descending FlightAware UK
04:14AM 51.9919 -4.9959 114° Southeast 498 573 35,500 3,180 Level FlightAware UK
04:14AM 51.9850 -4.9640 114° Southeast 572 658 37,000  Climbing FlightAware
04:15AM 51.9725 -4.8708 114° Southeast 496 571 35,500  Descending FlightAware UK
04:15AM 51.9630 -4.7930 114° Southeast 577 664 37,000  Climbing FlightAware
04:15AM 51.9547 -4.7173 114° Southeast 498 573 35,500 -2,700 Descending FlightAware UK
04:16AM 51.9468 -4.6405 99° East 496 571 35,500 3,720 Level FlightAware UK
04:16AM 51.9460 -4.6310 99° East 578 665 37,000  Climbing FlightAware
04:16AM 51.9362 -4.5384 99° East 496 571 35,500 -2,520 Descending FlightAware UK
04:16AM 51.9279 -4.4619 100° East 496 571 35,500 3,300 Level FlightAware UK
04:16AM 51.9250 -4.4380 100° East 577 664 37,000  Climbing FlightAware
04:17AM 51.9163 -4.3602 100° East 496 571 35,500  Descending FlightAware UK
04:17AM 51.9050 -4.2660 100° East 576 663 37,000 1,260 Climbing FlightAware
04:18AM 51.8810 -4.0730 101° East 575 662 37,000  Level FlightAware
04:18AM 51.8731 -4.0061 101° East 575 662 37,000 -2,820 Level FlightAware ADS-B
04:18AM 51.8635 -3.9306 101° East 496 571 35,500  Descending FlightAware UK
04:19AM 51.8530 -3.8477 101° East 575 662 37,000  Climbing FlightAware ADS-B
04:19AM 51.8410 -3.7539 101° East 494 568 35,500  Descending FlightAware UK
04:19AM 51.8351 -3.7071 101° East 573 659 37,000 1,980 Climbing FlightAware ADS-B
04:20AM 51.8170 -3.5663 102° East 570 656 37,000 -1,680 Level FlightAware ADS-B
04:20AM 51.8057 -3.4781 102° East 496 571 35,500  Descending FlightAware UK
04:20AM 51.7995 -3.4302 102° East 568 654 37,000  Climbing FlightAware ADS-B
04:21AM 51.7830 -3.3045 102° East 490 564 35,500  Descending FlightAware UK
04:21AM 51.7795 -3.2770 102° East 569 655 37,000  Climbing FlightAware ADS-B
04:21AM 51.7701 -3.2051 102° East 486 559 35,500  Descending FlightAware UK
04:22AM 51.7619 -3.1425 102° East 573 659 37,000  Climbing FlightAware ADS-B
04:22AM 51.7537 -3.0806 102° East 490 564 35,500  Descending FlightAware UK
04:22AM 51.7447 -3.0126 102° East 573 659 37,000  Climbing FlightAware ADS-B
04:22AM 51.7337 -2.9297 102° East 488 562 35,500  Descending FlightAware UK
04:23AM 51.7278 -2.8858 102° East 574 661 37,000 2,160 Climbing FlightAware ADS-B
04:23AM 51.7110 -2.7598 102° East 576 663 37,000 -1,860 Level FlightAware ADS-B
04:23AM 51.7010 -2.6779 102° East 488 562 35,500  Descending FlightAware UK
04:24AM 51.6959 -2.6310 102° East 578 665 37,000  Climbing FlightAware ADS-B
04:24AM 51.6871 -2.5509 102° East 490 564 35,500  Descending FlightAware UK
04:24AM 51.6812 -2.4919 102° East 580 667 37,000  Climbing FlightAware ADS-B
04:24AM 51.6742 -2.4225 102° East 494 568 35,500  Descending FlightAware UK
04:25AM 51.6687 -2.3635 102° East 580 667 37,000  Climbing FlightAware ADS-B
04:25AM 51.6596 -2.2694 102° East 492 566 35,500  Descending FlightAware UK
04:25AM 51.6564 -2.2351 102° East 580 667 37,000  Climbing FlightAware ADS-B
04:26AM 51.6476 -2.1409 102° East 492 566 35,500  Descending FlightAware UK
04:26AM 51.6444 -2.1066 102° East 579 666 37,000 2,220 Climbing FlightAware ADS-B
04:26AM 51.6320 -1.9732 98° East 578 665 37,000 -1,740 Level FlightAware ADS-B
04:27AM 51.6237 -1.8851 98° East 492 566 35,500  Descending FlightAware UK
04:27AM 51.6194 -1.8392 98° East 579 666 37,000 2,100 Climbing FlightAware ADS-B
04:27AM 51.6071 -1.7104 99° East 579 666 37,000 -1,680 Level FlightAware ADS-B
04:28AM 51.5969 -1.6046 99° East 492 566 35,500  Descending FlightAware UK
04:28AM 51.5943 -1.5773 99° East 578 665 37,000  Climbing FlightAware ADS-B
04:28AM 51.5871 -1.5030 99° East 494 568 35,500  Descending FlightAware UK
04:28AM 51.5812 -1.4437 99° East 577 664 37,000 1,980 Climbing FlightAware ADS-B
04:29AM 51.5684 -1.3153 99° East 577 664 37,000  Level FlightAware ADS-B
04:29AM 51.5540 -1.1744 99° East 578 665 37,000 -1,800 Level FlightAware ADS-B
04:30AM 51.5459 -1.0962 99° East 490 564 35,500  Descending FlightAware UK
04:30AM 51.5404 -1.0427 99° East 579 666 37,000  Climbing FlightAware ADS-B
04:30AM 51.5301 -0.9443 99° East 492 566 35,500  Descending FlightAware UK
04:30AM 51.5271 -0.9152 99° East 578 665 37,000  Climbing FlightAware ADS-B
04:31AM 51.5167 -0.8169 99° East 494 568 35,500  Descending FlightAware UK
04:31AM 51.5132 -0.7839 99° East 576 663 37,000  Climbing FlightAware ADS-B
04:31AM 51.5060 -0.7161 99° East 494 568 35,500  Descending FlightAware UK
04:31AM 51.4989 -0.6496 99° East 575 662 37,000  Climbing FlightAware ADS-B
04:32AM 51.4896 -0.5645 99° East 492 566 35,500  Descending FlightAware UK
04:32AM 51.4851 -0.5224 99° East 575 662 37,000  Climbing FlightAware ADS-B
04:32AM 51.4758 -0.4382 99° East 490 564 35,500  Descending FlightAware UK
04:32AM 51.4710 -0.3934 99° East 576 663 37,000 2,040 Climbing FlightAware ADS-B
04:33AM 51.4565 -0.2620 100° East 575 662 37,000 -1,680 Level FlightAware ADS-B
04:33AM 51.4453 -0.1623 100° East 490 564 35,500  Descending FlightAware UK
04:33AM 51.4425 -0.1359 100° East 575 662 37,000  Climbing FlightAware ADS-B
04:34AM 51.4342 -0.0621 100° East 490 564 35,500  Descending FlightAware UK
04:34AM 51.4281 -0.0072 100° East 575 662 37,000  Climbing FlightAware ADS-B
04:34AM 51.4171 0.0893 100° East 488 562 35,500  Descending FlightAware UK
04:34AM 51.4135 0.1217 100° East 576 663 37,000  Climbing FlightAware ADS-B
04:35AM 51.4029 0.2149 100° East 488 562 35,500  Descending FlightAware UK
04:35AM 51.3989 0.2483 100° East 579 666 37,000  Climbing FlightAware ADS-B
04:35AM 51.3911 0.3166 100° East 486 559 35,500  Descending FlightAware UK
04:36AM 51.3810 0.4029 100° East 580 667 37,000 1,500 Climbing FlightAware ADS-B
04:36AM 51.3630 0.5552 101° East 581 669 37,000  Level FlightAware ADS-B
04:37AM 51.3479 0.6822 101° East 581 669 37,000 -2,040 Level FlightAware ADS-B
04:37AM 51.3402 0.7465 101° East 490 564 35,500  Descending FlightAware UK
04:37AM 51.3323 0.8125 101° East 581 669 37,000 1,920 Climbing FlightAware ADS-B
04:38AM 51.3169 0.9392 101° East 580 667 37,000 -1,800 Level FlightAware ADS-B
04:38AM 51.3065 1.0243 101° East 490 564 35,500  Descending FlightAware UK
04:38AM 51.3015 1.0655 101° East 578 665 37,000  Climbing FlightAware ADS-B
04:39AM 51.2909 1.1504 101° East 492 566 35,500  Descending FlightAware UK
04:39AM 51.2853 1.1962 101° East 576 663 37,000  Climbing FlightAware ADS-B
04:39AM 51.2755 1.2751 101° East 488 562 35,500 -2,520 Descending FlightAware UK
04:39AM 51.2661 1.3496 101° East 490 564 35,500 3,180 Level FlightAware UK
04:40AM 51.2620 1.3810 101° East 574 661 37,000  Climbing FlightAware
04:40AM 51.2505 1.4745 101° East 488 562 35,500  Descending FlightAware UK
04:40AM 51.2420 1.5390 101° East 572 658 37,000  Climbing FlightAware
04:40AM 51.2316 1.6222 101° East 490 564 35,500  Descending FlightAware UK
04:41AM 51.2150 1.7250 101° East 570 656 37,000  Climbing FlightAware
04:41AM 51.1998 1.8177 101° East 490 564 35,500  Descending FlightAware UK
04:42AM 51.1880 1.8890 101° East 569 655 37,000  Climbing FlightAware
04:42AM 51.1717 1.9877 101° East 488 562 35,500 -2,340 Descending FlightAware UK
04:42AM 51.1599 2.0605 104° East 488 562 35,500 2,160 Level FlightAware UK
04:43AM 51.1450 2.1511 104° East 568 654 37,000 1,320 Climbing FlightAware ADS-B
04:43AM 51.1159 2.3293 105° East 568 654 37,000 -1,500 Level FlightAware ADS-B
04:44AM 51.1043 2.4000 105° East 488 562 35,500  Descending FlightAware UK
04:44AM 51.0947 2.4591 105° East 569 655 37,000 1,860 Climbing FlightAware ADS-B
04:44AM 51.0750 2.5780 105° East 567 652 37,000  Level FlightAware
04:45AM 51.0480 2.7420 105° East 567 652 37,000 -1,140 Level FlightAware
04:46AM 51.0201 2.9073 105° East 490 564 35,500  Descending FlightAware UK
04:46AM 51.0230 2.8880 105° East 566 651 37,000  Climbing FlightAware
04:46AM 51.0079 2.9793 105° East 488 562 35,500  Descending FlightAware UK
04:47AM 50.9910 3.0780 105° East 566 651 37,000  Climbing FlightAware
04:47AM 50.9712 3.1958 105° East 490 564 35,500  Descending FlightAware UK
04:47AM 50.9650 3.2330 105° East 565 650 37,000  Climbing FlightAware
04:47AM 50.9507 3.3146 105° East 490 564 35,500 -2,580 Descending FlightAware UK
04:48AM 50.9382 3.3869 105° East 490 564 35,500 3,180 Level FlightAware UK
04:48AM 50.9330 3.4150 105° East 562 647 37,000  Climbing FlightAware
04:48AM 50.9132 3.5293 105° East 488 562 35,500  Descending FlightAware UK
04:49AM 50.9050 3.5770 105° East 561 646 37,000  Climbing FlightAware
04:49AM 50.8924 3.6475 105° East 488 562 35,500  Descending FlightAware UK
04:49AM 50.8770 3.7360 105° East 560 644 37,000 1,260 Climbing FlightAware
04:50AM 50.8460 3.9090 106° East 559 643 37,000  Level FlightAware
04:51AM 50.8170 4.0660 106° East 558 642 37,000 -120 Level FlightAware
04:51AM 50.7890 4.2210 106° East 556 640 36,900 -600 Descending FlightAware
04:52AM 50.7560 4.4010 106° East 566 651 36,200 -2,340 Descending FlightAware
04:52AM 50.7383 4.4946 106° East 494 568 34,300 -900 Descending FlightAware UK
04:53AM 50.7280 4.5520 106° East 572 658 35,600 -1,020 Climbing FlightAware
04:53AM 50.6994 4.6819 106° East 1 1 33,500 -840 Descending FlightAware UK
04:54AM 50.6960 4.7230 106° East 570 656 35,000 1,620 Climbing FlightAware
04:54AM 50.6650 4.8870 107° East 563 648 35,000  Level FlightAware
04:55AM 50.6360 5.0440 106° East 561 646 35,000 -480 Level FlightAware
04:56AM 50.6000 5.2310 107° East 568 654 34,400 -1,200 Descending FlightAware
04:56AM 50.5680 5.3940 107° East 562 647 33,200 -1,800 Descending FlightAware
04:57AM 50.5410 5.5340 107° East 565 650 32,000 -1,980 Descending FlightAware
04:58AM 50.5070 5.7060 107° East 569 655 30,600 -2,040 Descending FlightAware
04:58AM 50.4700 5.8940 107° East 579 666 29,000 -1,980 Descending FlightAware
04:59AM 50.4410 6.0400 107° East 564 649 27,800 -1,500 Descending FlightAware
05:00AM 50.4100 6.1950 107° East 551 634 27,000 -1,080 Descending FlightAware
05:00AM 50.3810 6.3380 108° East 549 632 26,400 -1,020 Descending FlightAware
05:01AM 50.3740 6.4080 99° East 544 626 26,100 -420 Descending FlightAware
05:01AM 50.3960 6.5780 78° East 530 610 26,000 -120 Descending FlightAware
05:02AM 50.4230 6.7220 74° East 536 617 26,000 -720 Level FlightAware
05:03AM 50.4440 6.8970 79° East 537 618 25,000 -1,380 Descending FlightAware
05:04AM 50.4310 7.0350 98° East 521 600 24,100 -2,340 Descending FlightAware
05:04AM 50.3800 7.1790 119° Southeast 496 571 21,900 -3,180 Descending FlightAware
05:05AM 50.3270 7.2810 129° Southeast 487 560 19,900 -1,500 Descending FlightAware
05:08AM 50.1921 7.8565 117° Southeast  Level Estimated
05:09AM 50.1401 8.0742 121° Southeast  Level Estimated
05:10AM 50.1067 8.3101 114° Southeast  Level FlightAware Approximate
05:11AM 50.0386 8.5155 124° Southeast  Level FlightAware Approximate
05:12AM 50.0264 8.5431 124° Southeast  Level Estimated
05:13AM 50.0264 8.5431 124° Southeast  Level Estimated
05:14AM 50.0264 8.5431 124° Southeast  Level Estimated
05:15AM 50.0264 8.5431 124° Southeast  Level Estimated
05:15AM 50.0330 8.9270 124° Southeast 334 384 5,600  Level FlightAware
05:18AM 50.0264 8.5431 269° West  Level Estimated
05:19AM 50.0264 8.5431 73° East  Level Estimated
05:20AM 50.0264 8.5431 73° East  Level Estimated
05:21AM 50.0264 8.5431 73° East  Level Estimated
05:22AM 50.0264 8.5431 73° East  Level Estimated
05:23AM 50.0264 8.5431 73° East  Level Estimated
05:24AM 50.0264 8.5431 73° East  Level Estimated
05:25AM 50.0264 8.5431 73° East  Level Estimated
05:26AM 50.0264 8.5431 73° East  Level Estimated
05:27AM 50.0264 8.5431 73° East  Level Estimated
05:28AM 50.0264 8.5431 73° East  Level Estimated
05:29AM 50.0264 8.5431 73° East  Level Estimated
05:30AM 50.0264 8.5431 73° East  Level Estimated
05:31AM 50.0264 8.5431 73° East  Level Estimated
05:32AM 50.0264 8.5431 73° East  Level Estimated
05:33AM 50.0264 8.5431 73° East  Level Estimated